Latest Weather Observations for Macquarie Island

IDT60801

Issued at 1:05 pm EDT Sunday 23 November 2014 (issued every 30 minutes, with the page automatically refreshed every 10 minutes)

About weather observations | Map of weather stations | Latest weather observations for TAS | Other Formats
Station Details ID: 300004 Name: MACQUARIE ISLAND Lat: -54.50 Lon: 158.94 Height: 6.0 m
Data from the previous 72 hours. | See also: Recent months at Macquarie Island
Date/Time
EDT
Temp
°C
App
Temp
°C
Dew
Point
Rel
Hum
%
Delta-T
°C
Wind Press
QNH
hPa
Press
MSL
hPa
Rain
since 9 am
mm
Dir
 
Spd
km/h
Gust
km/h
Spd
kts
Gust
kts
23/01:00pm 7.0 4.1 4.8 86 1.0 NNW 9 11 5 6 996.7 - 0.0
23/12:30pm 7.0 3.7 4.7 85 1.0 NNW 11 13 6 7 996.7 - 0.0
23/12:00pm 7.1 3.1 4.9 86 1.0 N 15 15 8 8 996.7 997.0 0.0
23/11:30am 7.0 3.8 5.2 88 0.8 N 11 13 6 7 996.8 - 0.0
23/11:00am 6.8 3.6 5.0 88 0.8 N 11 11 6 6 996.8 - 0.0
23/10:30am 6.5 3.2 4.8 89 0.7 N 11 11 6 6 996.8 - 0.0
23/10:00am 6.5 3.3 5.0 90 0.7 NNW 11 11 6 6 996.8 - 0.0
23/09:30am 6.9 4.2 5.5 91 0.6 N 9 11 5 6 996.8 - 0.0
23/09:00am 6.8 3.8 5.9 94 0.4 N 11 13 6 7 996.8 997.1 1.2
23/08:30am 6.2 3.0 5.0 92 0.5 N 11 13 6 7 996.6 - 1.2
23/08:00am 6.2 4.0 5.2 93 0.4 N 6 7 3 4 996.4 - 1.2
23/07:30am 5.6 4.4 4.7 94 0.4 CALM 0 6 0 3 996.3 - 1.2
23/07:00am 5.2 3.2 4.3 94 0.4 ESE 4 6 2 3 996.1 - 1.2
23/06:30am 5.0 2.0 4.1 94 0.4 SSE 9 9 5 5 995.9 - 1.2
23/06:00am 4.8 1.8 3.9 94 0.4 SE 9 11 5 6 995.8 996.1 1.2
23/05:30am 4.8 1.4 4.1 95 0.3 SE 11 11 6 6 995.7 - 1.2
23/05:00am 4.5 1.0 3.6 94 0.4 SSE 11 15 6 8 995.4 - 1.2
23/04:30am 4.4 0.9 3.5 94 0.4 SSE 11 13 6 7 995.3 - 1.2
23/04:00am 4.5 1.0 3.6 94 0.4 SE 11 11 6 6 995.4 - 1.2
23/03:30am 4.4 0.9 3.5 94 0.4 SSE 11 13 6 7 995.5 - 1.2
23/03:00am 4.5 1.4 3.6 94 0.4 SSE 9 11 5 6 995.6 995.9 1.2
23/02:30am 4.5 1.0 3.6 94 0.4 SSE 11 11 6 6 995.8 - 1.2
23/02:00am 4.6 1.9 3.6 93 0.4 SE 7 9 4 5 996.0 - 1.2
23/01:30am 4.6 1.5 3.6 93 0.4 SSE 9 9 5 5 996.2 - 1.2
23/01:00am 4.8 2.3 3.8 93 0.4 ESE 6 9 3 5 996.4 - 1.2
23/12:30am 4.9 3.6 3.9 93 0.4 CALM 0 0 0 0 996.7 - 1.0
23/12:00am 4.9 1.5 3.9 93 0.4 NE 11 13 6 7 997.0 997.3 1.0
 
Date/Time
EDT
Temp
°C
App
Temp
°C
Dew
Point
Rel
Hum
%
Delta-T
°C
Wind Press
QNH
hPa
Press
MSL
hPa
Rain
since 9 am
mm
Dir
 
Spd
km/h
Gust
km/h
Spd
kts
Gust
kts
22/11:30pm 4.8 2.3 3.8 93 0.4 N 6 7 3 4 997.2 - 1.0
22/11:00pm 4.9 2.2 3.7 92 0.5 NNW 7 7 4 4 997.3 - 1.0
22/10:30pm 4.8 1.7 3.6 92 0.5 N 9 13 5 7 997.6 - 0.8
22/10:00pm 4.8 0.6 3.6 92 0.5 N 15 17 8 9 997.8 - 0.6
22/09:30pm 4.9 0.7 3.9 93 0.4 NNW 15 17 8 9 997.9 - 0.4
22/09:00pm 5.1 -0.1 3.8 91 0.5 NNW 20 24 11 13 997.9 998.2 0.2
22/08:30pm 5.1 1.7 4.1 93 0.4 NNW 11 15 6 8 998.1 - 0.0
22/08:00pm 5.1 0.9 3.9 92 0.5 N 15 17 8 9 998.1 - 0.0
22/07:30pm 5.0 1.2 3.8 92 0.5 NNW 13 15 7 8 998.2 - 0.0
22/07:00pm 5.1 0.9 3.8 91 0.5 NNW 15 15 8 8 998.1 - 0.0
22/06:30pm 5.4 1.6 4.1 91 0.6 NNW 13 15 7 8 998.0 - 0.0
22/06:00pm 5.3 1.1 3.8 90 0.6 NNW 15 19 8 10 997.9 998.2 0.0
22/05:30pm 5.7 1.2 4.0 89 0.7 NNW 17 20 9 11 997.9 - 0.0
22/05:00pm 5.9 0.8 4.2 89 0.7 NNW 20 26 11 14 997.9 - 0.0
22/04:30pm 6.0 0.5 4.2 88 0.8 NNW 22 28 12 15 997.9 - 0.0
22/04:00pm 5.8 -0.4 4.1 89 0.7 NNW 26 30 14 16 997.9 - 0.0
22/03:30pm 5.9 0.5 4.4 90 0.6 NNW 22 28 12 15 998.0 - 0.0
22/03:00pm 6.0 -0.6 4.2 88 0.8 N 28 32 15 17 998.1 998.4 0.0
22/02:30pm 6.4 -0.1 4.7 89 0.7 N 28 32 15 17 998.1 - 0.0
22/02:00pm 6.2 -1.6 4.7 90 0.6 WNW 35 39 19 21 998.1 - 0.0
22/01:30pm 5.4 -2.5 4.2 92 0.5 WNW 35 43 19 23 998.2 - 0.0
22/01:20pm 5.2 -3.5 4.2 93 0.4 NNW 39 43 21 23 998.2 - 0.0
22/01:11pm 5.4 -2.5 4.4 93 0.4 N 35 41 19 22 998.2 - 0.0
22/01:00pm 5.3 -3.0 4.3 93 0.4 NW 37 43 20 23 998.1 - 0.0
22/12:30pm 5.6 -3.1 3.9 89 0.7 N 39 46 21 25 998.0 - 0.0
22/12:11pm 5.9 -2.0 4.1 88 0.8 N 35 41 19 22 997.9 - 0.0
22/12:00pm 5.9 -2.8 4.2 89 0.7 NNW 39 46 21 25 997.8 998.1 0.0
22/11:54am 5.8 -2.1 4.3 90 0.6 NNW 35 41 19 22 997.8 - 0.0
22/11:48am 5.6 -3.5 4.1 90 0.6 WNW 41 46 22 25 997.7 - 0.0
22/11:30am 5.4 -3.8 3.7 89 0.7 NNW 41 46 22 25 997.8 - 0.0
22/11:24am 5.5 -4.0 4.0 90 0.6 NNW 43 46 23 25 997.8 - 0.0
22/11:10am 5.4 -3.8 3.3 86 0.9 NNE 41 44 22 24 997.7 - 0.0
22/11:05am 5.4 -3.5 3.3 86 0.9 NNW 39 43 21 23 997.6 - 0.0
22/11:00am 5.5 -3.4 3.2 85 1.0 N 39 44 21 24 997.6 - 0.0
22/10:30am 6.2 -2.5 4.0 86 0.9 N 39 44 21 24 997.5 - 0.0
22/10:00am 6.2 -1.7 4.2 87 0.9 N 35 41 19 22 997.4 - 0.0
22/09:45am 6.1 -1.9 3.9 86 0.9 NW 35 41 19 22 997.3 - 0.0
22/09:30am 5.9 -2.4 4.4 90 0.6 N 37 44 20 24 997.2 - 0.0
22/09:00am 5.6 -2.3 4.1 90 0.6 N 35 43 19 23 997.3 997.6 1.6
22/08:30am 5.5 -1.0 4.6 94 0.4 N 28 32 15 17 997.3 - 1.6
22/08:29am 5.6 -0.9 4.7 94 0.4 N 28 32 15 17 997.3 - 1.6
22/08:00am 3.1 -0.3 2.1 93 0.4 NNW 9 11 5 6 997.6 - 1.6
22/07:30am 2.9 -1.6 1.9 93 0.4 NNW 15 19 8 10 997.5 - 1.4
22/07:00am 2.7 -2.9 1.5 92 0.5 N 20 24 11 13 997.8 - 1.4
22/06:30am 2.8 -3.5 1.5 91 0.5 W 24 28 13 15 997.8 - 1.2
22/06:00am 2.8 -3.6 1.2 89 0.6 W 24 28 13 15 997.9 998.2 0.8
22/05:30am 3.3 -3.4 1.5 88 0.7 W 26 32 14 17 997.7 - 0.2
22/05:00am 3.6 -3.9 1.5 86 0.8 N 30 32 16 17 997.4 - 0.0
22/04:30am 3.6 -3.0 1.8 88 0.7 NNW 26 30 14 16 997.4 - 0.0
22/04:00am 3.6 -3.5 1.6 87 0.8 WNW 28 33 15 18 997.3 - 0.0
22/03:30am 3.4 -3.0 1.1 85 0.9 W 24 30 13 16 997.2 - 0.0
22/03:00am 3.3 -3.9 0.9 84 0.9 W 28 33 15 18 997.0 997.3 0.0
22/02:30am 3.5 -4.5 1.5 87 0.8 WNW 33 41 18 22 997.0 - 0.0
22/02:00am 3.6 -2.3 1.5 86 0.8 WNW 22 33 12 18 996.8 - 0.0
22/01:30am 3.4 -3.1 0.3 80 1.2 W 24 33 13 18 996.9 - 0.0
22/01:00am 3.6 -4.7 -0.2 76 1.4 W 33 43 18 23 996.6 - 0.0
22/12:30am 3.5 -3.7 0.6 81 1.1 W 28 37 15 20 996.6 - 0.0
22/12:00am 3.5 -3.8 0.0 78 1.3 W 28 33 15 18 996.5 996.8 0.0
 
Date/Time
EDT
Temp
°C
App
Temp
°C
Dew
Point
Rel
Hum
%
Delta-T
°C
Wind Press
QNH
hPa
Press
MSL
hPa
Rain
since 9 am
mm
Dir
 
Spd
km/h
Gust
km/h
Spd
kts
Gust
kts
21/11:30pm 3.8 -3.0 0.5 79 1.3 W 26 37 14 20 996.4 - 0.0
21/11:00pm 3.9 -4.3 0.4 78 1.3 W 33 43 18 23 996.4 - 0.0
21/10:30pm 3.6 -3.1 1.5 86 0.8 W 26 30 14 16 996.0 - 0.0
21/10:00pm 3.4 -3.8 0.5 81 1.1 W 28 39 15 21 995.7 - 0.0
21/09:30pm 3.2 -4.9 1.3 87 0.7 W 33 46 18 25 995.6 - 0.0
21/09:00pm 3.3 -4.7 1.7 89 0.6 W 33 41 18 22 995.2 995.5 0.0
21/08:30pm 2.9 -4.6 1.3 89 0.6 W 30 39 16 21 994.9 - 0.0
21/08:00pm 2.7 -3.3 1.1 89 0.6 W 22 28 12 15 994.6 - 0.0
21/07:30pm 2.7 -4.5 0.9 88 0.7 W 28 33 15 18 994.3 - 0.0
21/07:00pm 2.6 -4.6 1.0 89 0.6 W 28 35 15 19 994.0 - 0.0
21/06:30pm 2.3 -3.4 0.4 87 0.7 WSW 20 35 11 19 993.8 - 0.0
21/06:12pm 2.9 -5.1 0.6 85 0.9 WSW 32 50 17 27 993.8 - 0.0
21/06:08pm 3.2 -6.1 0.8 84 0.9 WSW 39 50 21 27 993.7 - 0.0
21/06:00pm 3.8 -4.0 1.4 84 0.9 W 32 43 17 23 993.5 993.8 0.0
21/05:30pm 3.9 -2.8 1.4 84 1.0 W 26 33 14 18 993.3 - 0.0
21/05:00pm 4.4 -3.0 1.9 84 1.0 W 30 35 16 19 993.1 - 0.0
21/04:30pm 5.2 -1.7 2.7 84 1.0 W 28 35 15 19 992.9 - 0.0
21/04:00pm 4.9 -2.1 1.9 81 1.2 W 28 35 15 19 992.7 - 0.0
21/03:30pm 4.7 -3.1 1.7 81 1.2 WSW 32 46 17 25 992.7 - 0.0
21/03:22pm 4.7 -4.2 1.0 77 1.4 W 37 46 20 25 992.7 - 0.0
21/03:00pm 6.2 -1.9 3.0 80 1.3 NW 35 43 19 23 992.5 992.8 0.0
21/02:30pm 6.4 -1.7 3.4 81 1.3 WNW 35 43 19 23 992.5 - 0.0
21/02:00pm 6.0 -1.6 3.0 81 1.2 WNW 32 37 17 20 992.6 - 0.0
21/01:00pm 5.3 -2.5 2.7 83 1.1 W 33 44 18 24 992.6 - 0.0
21/12:47pm 5.4 -3.2 2.6 82 1.1 W 37 43 20 23 992.6 - 0.0
21/12:30pm 6.2 -1.0 3.2 81 1.3 NW 30 39 16 21 992.6 - 0.0
21/12:00pm 5.0 -1.9 2.5 84 1.0 W 28 32 15 17 992.7 993.0 0.0
21/11:30am 4.4 -2.7 1.6 82 1.1 W 28 35 15 19 992.6 - 0.0
21/11:00am 6.2 -0.1 3.9 85 1.0 NW 26 30 14 16 992.4 - 0.0
21/10:30am 5.5 -0.6 3.0 84 1.0 N 24 28 13 15 992.5 - 0.0
21/10:00am 5.5 -0.1 3.3 86 0.9 N 22 26 12 14 992.4 - 0.0
21/09:30am 5.5 0.2 3.2 85 1.0 NW 20 26 11 14 992.3 - 0.0
21/09:00am 5.0 -0.2 2.5 84 1.0 W 19 26 10 14 992.1 992.4 4.4
21/08:30am 4.6 -0.5 2.8 88 0.7 W 19 22 10 12 991.9 - 4.4
21/08:00am 3.5 -1.8 1.9 89 0.6 W 19 26 10 14 991.7 - 4.4
21/07:30am 3.0 -0.8 1.8 92 0.5 SW 11 19 6 10 991.3 - 4.4
21/07:00am 3.0 -3.6 2.0 93 0.4 W 26 32 14 17 990.9 - 3.8
21/06:30am 2.5 -5.0 1.5 93 0.4 W 30 35 16 19 990.6 - 3.6
21/06:00am 2.7 -3.6 1.7 93 0.4 W 24 28 13 15 990.1 990.4 3.6
21/05:30am 2.4 -3.9 1.4 93 0.4 WSW 24 32 13 17 989.7 - 3.4
21/05:00am 2.6 -4.1 1.6 93 0.4 W 26 32 14 17 989.2 - 3.2
21/04:30am 2.0 -3.6 1.0 93 0.4 W 20 32 11 17 989.0 - 3.0
21/04:00am 2.1 -2.9 1.1 93 0.4 W 17 22 9 12 988.8 - 2.2
21/03:30am 2.0 -3.7 0.8 92 0.4 W 20 26 11 14 988.7 - 2.0
21/03:00am 2.2 -3.5 0.7 90 0.6 W 20 28 11 15 988.5 988.8 1.4
21/02:30am 2.2 -2.2 0.6 89 0.6 WSW 13 33 7 18 988.1 - 1.4
21/02:00am 2.2 -3.5 0.6 89 0.6 SW 20 35 11 19 987.7 - 1.4
21/01:30am 2.1 -4.4 0.6 90 0.6 WSW 24 39 13 21 987.1 - 1.4
21/01:00am 2.1 -5.1 0.6 90 0.6 SW 28 43 15 23 986.5 - 1.2
21/12:39am 2.2 -5.0 0.7 90 0.6 SW 28 46 15 25 985.8 - 1.2
21/12:30am 2.3 -4.5 0.8 90 0.6 SW 26 43 14 23 985.5 - 1.0
21/12:00am 2.5 -4.3 1.0 90 0.6 SSW 26 46 14 25 984.4 984.7 1.0
 
Date/Time
EDT
Temp
°C
App
Temp
°C
Dew
Point
Rel
Hum
%
Delta-T
°C
Wind Press
QNH
hPa
Press
MSL
hPa
Rain
since 9 am
mm
Dir
 
Spd
km/h
Gust
km/h
Spd
kts
Gust
kts
20/11:30pm 2.5 -5.4 1.0 90 0.6 SSW 32 52 17 28 982.8 - 1.0
20/11:00pm 2.8 -5.6 1.5 91 0.5 SSW 35 57 19 31 981.1 - 0.8
20/10:51pm 2.9 -4.1 1.7 92 0.5 SSW 28 52 15 28 980.7 - 0.8
20/10:30pm 3.5 -2.6 2.5 93 0.4 SSW 24 39 13 21 979.3 - 0.6
20/10:00pm 4.6 -2.1 3.7 94 0.4 WSW 28 48 15 26 977.6 - 0.4
20/09:30pm 4.6 -2.4 3.9 95 0.3 W 30 48 16 26 976.7 - 0.4
20/09:08pm 4.4 -3.6 3.7 95 0.3 W 35 54 19 29 975.7 - 0.4
20/09:00pm 4.4 -4.4 3.7 95 0.3 W 39 46 21 25 975.5 975.8 0.2
20/08:47pm 4.3 -3.7 3.6 95 0.3 W 35 43 19 23 975.1 - 0.2
20/08:30pm 4.0 -4.9 3.3 95 0.3 WNW 39 50 21 27 974.7 - 0.2
20/08:00pm 3.7 -6.2 3.0 95 0.3 WNW 44 56 24 30 974.4 - 0.0
20/07:39pm 3.6 -7.8 2.9 95 0.3 NW 52 57 28 31 974.2 - 0.0
20/07:30pm 3.6 -8.2 2.9 95 0.3 N 54 65 29 35 974.2 - 0.0
20/07:26pm 3.6 -8.2 2.9 95 0.3 N 54 65 29 35 974.3 - 0.0
20/07:21pm 3.6 -7.8 2.7 94 0.4 NNW 52 61 28 33 974.3 - 0.0
20/07:13pm 3.5 -7.9 2.6 94 0.4 N 52 63 28 34 974.5 - 0.0
20/07:00pm 3.7 -8.1 2.7 93 0.4 NNW 54 63 29 34 974.7 - 0.0
20/06:57pm 3.7 -8.1 2.7 93 0.4 NNW 54 63 29 34 974.7 - 0.0
20/06:53pm 3.7 -8.5 2.5 92 0.5 WNW 56 65 30 35 974.7 - 0.0
20/06:45pm 3.9 -7.2 2.6 91 0.5 NNW 50 59 27 32 974.8 - 0.0
20/06:30pm 3.9 -7.1 2.9 93 0.4 NW 50 59 27 32 974.8 - 0.0
20/06:29pm 3.8 -7.2 2.8 93 0.4 WNW 50 59 27 32 974.8 - 0.0
20/06:23pm 3.9 -6.7 2.9 93 0.4 NNW 48 57 26 31 974.9 - 0.0
20/06:00pm 4.1 -6.2 2.8 91 0.5 N 46 57 25 31 974.7 975.0 0.0
20/05:50pm 4.1 -5.6 2.8 91 0.5 N 43 50 23 27 974.8 - 0.0
20/05:46pm 4.1 -6.2 2.8 91 0.5 NNW 46 54 25 29 974.8 - 0.0
20/05:44pm 4.1 -6.9 2.8 91 0.5 N 50 57 27 31 974.7 - 0.0
20/05:30pm 4.2 -6.4 2.9 91 0.5 NW 48 57 26 31 974.7 - 0.0
20/05:25pm 4.2 -5.7 2.9 91 0.5 N 44 57 24 31 974.8 - 0.0
20/05:11pm 4.3 -6.7 2.8 90 0.6 NW 50 56 27 30 974.7 - 0.0
20/05:03pm 4.3 -6.0 2.8 90 0.6 N 46 56 25 30 974.8 - 0.0
20/05:00pm 4.4 -6.3 2.8 89 0.6 NW 48 57 26 31 974.7 - 0.0
20/04:52pm 4.5 -6.5 3.0 90 0.6 NW 50 56 27 30 974.7 - 0.0
20/04:44pm 4.4 -5.8 3.1 91 0.5 NNW 46 54 25 29 974.7 - 0.0
20/04:41pm 4.4 -5.9 2.9 90 0.6 WNW 46 56 25 30 974.6 - 0.0
20/04:30pm 4.6 -6.0 2.9 89 0.7 NNW 48 59 26 32 974.6 - 0.0
20/04:00pm 4.7 -4.9 3.2 90 0.6 NW 43 50 23 27 974.6 - 0.0
20/03:30pm 5.0 -5.6 3.2 88 0.7 NW 48 61 26 33 974.4 - 0.0
20/03:00pm 5.2 -4.9 3.7 90 0.6 WNW 46 59 25 32 974.3 974.6 0.0
20/02:58pm 5.1 -5.0 3.6 90 0.6 WNW 46 54 25 29 974.3 - 0.0
20/02:37pm 4.9 -4.6 3.7 92 0.5 NW 43 52 23 28 974.2 - 0.0
20/02:30pm 4.8 -5.7 3.6 92 0.5 WNW 48 59 26 32 974.2 - 0.0
20/02:00pm 4.9 -4.8 3.9 93 0.4 WNW 44 56 24 30 973.8 - 0.0
20/01:57pm 4.8 -5.3 3.8 93 0.4 WNW 46 56 25 30 973.8 - 0.0
20/01:30pm 5.0 -4.1 3.8 92 0.5 NNW 41 46 22 25 973.7 - 0.0
20/01:25pm 5.1 -4.4 3.8 91 0.5 NW 43 46 23 25 973.6 - 0.0
20/01:17pm 5.2 -3.9 3.9 91 0.5 NNE 41 44 22 24 973.7 - 0.0
20/01:15pm 5.2 -3.5 3.9 91 0.5 N 39 46 21 25 973.6 - 0.0
20/01:11pm 5.3 -3.0 4.1 92 0.5 NW 37 43 20 23 973.6 - 0.0
20/01:08pm 5.2 -3.5 3.9 91 0.5 N 39 46 21 25 973.6 - 0.0
20/01:06pm 5.3 -4.2 4.1 92 0.5 NW 43 46 23 25 973.6 - 0.0

Other Formats:

Comma delimited format used in spreadsheet applications
http://www.bom.gov.au/fwo/IDT60801/IDT60801.94998.axf

JavaScript Object Notation format (JSON) in row-major order
http://www.bom.gov.au/fwo/IDT60801/IDT60801.94998.json